メインページ
METAR-TAF:

METAR-TAF

空港 :

アブムサ島, イラン

緯度: 25-52-33N, 経度: 055-02-01E, 海抜: 7m

現時点の気象観測

当レポートは20分前の04:00(UTC)に作成
の風 8kt
気温 30°C
湿度 55%
気圧 1006 hPa
視程10km以上
高度2500ftの雲はほとんどない
高度10000ftの千切れ雲あり

METAR: OIBA 220400Z 09008KT 9999 FEW025 BKN100 30/20 Q1006

時間: 08:50 (04:20 UTC)


TAF: 見つかりません

4,000以上の空港の気象観測と天気予報(METAR報とTAF報)

利用可能な観測所は地図上に黄色い丸と赤い丸で示す。

丸の上にカーソルを重ねると観測所名を参照できる。

次にクリックすると気象観測と天気予報を参照できる。

マップの切り替え:黒色「×」印の緑ボタンをクリックして拡大、「-」印の緑ボタンをクリックして縮小、緑色の三角印をクリックして隣りの地図に切り替え


METAR-TAF: